Terminal Aerodrome Forecast
Issued by NWS Cleveland, OH

Home | Current Version | Previous Version | Graphics & Text | Print | Product List | Glossary On
Versions: 1 2 3 4 5 6 7 8 9 10 11 12 13 14 15 16 17 18 19 20 21 22 23
000
FTUS41 KCLE 020700 AAA
TAFERI
TAF AMD
KERI 020707Z 0207/0306 26014KT 6SM BR OVC010
      TEMPO 0207/0211 3SM -SN BR BKN008
     FM021100 27014G20KT 6SM -SN BR OVC012
      TEMPO 0211/0215 3SM -SN BR BKN009
     FM021500 28014KT P6SM BKN022
     FM021900 26012KT P6SM SCT025 BKN045
     FM022200 28011KT P6SM SCT045 BKN250
     FM030200 VRB03KT P6SM BKN250=

USA.gov is the U.S. government's official web portal to all federal, state and local government web resources and services.